createdAt,value
2019-03-20T00:00:52.370Z,45.63
2019-03-20T00:01:52.361Z,45.73
2019-03-20T00:02:52.304Z,46.03
2019-03-20T00:03:52.346Z,45.43
2019-03-20T00:04:52.344Z,45.53
2019-03-20T00:05:52.316Z,45.53
2019-03-20T00:06:52.324Z,45.53
2019-03-20T00:07:52.338Z,45.53
2019-03-20T00:08:52.358Z,45.63
2019-03-20T00:09:52.300Z,45.43
2019-03-20T00:10:52.262Z,45.73
2019-03-20T00:11:52.265Z,45.53
2019-03-20T00:12:52.318Z,45.43
2019-03-20T00:13:52.242Z,46.03
2019-03-20T00:14:52.286Z,45.53
2019-03-20T00:15:52.209Z,45.63
2019-03-20T00:16:52.206Z,45.94
2019-03-20T00:17:52.198Z,45.63
2019-03-20T00:18:52.179Z,45.73
2019-03-20T00:19:52.174Z,45.94
2019-03-20T00:20:52.193Z,45.73
2019-03-20T00:21:52.157Z,46.03
2019-03-20T00:22:52.137Z,45.73
2019-03-20T00:23:52.151Z,45.73
2019-03-20T00:24:52.115Z,45.73
2019-03-20T00:25:52.096Z,46.03
2019-03-20T00:26:52.836Z,45.83
2019-03-20T00:27:52.024Z,45.73
2019-03-20T00:28:52.064Z,45.73
2019-03-20T00:29:52.055Z,45.73
2019-03-20T00:30:52.042Z,45.73
2019-03-20T00:31:52.036Z,45.43
2019-03-20T00:32:52.032Z,45.73
2019-03-20T00:33:52.060Z,45.73
2019-03-20T00:35:00.578Z,45.43
2019-03-20T00:35:52.986Z,45.73
2019-03-20T00:36:51.977Z,45.63
2019-03-20T00:37:52.019Z,45.33
2019-03-20T00:38:51.956Z,45.63
2019-03-20T00:39:51.984Z,45.43
2019-03-20T00:40:51.935Z,45.83
2019-03-20T00:41:51.928Z,45.63
2019-03-20T00:42:51.914Z,45.53
2019-03-20T00:43:51.934Z,45.73
2019-03-20T00:44:51.892Z,45.43
2019-03-20T00:45:51.908Z,45.63
2019-03-20T00:46:51.884Z,45.63
2019-03-20T00:47:51.905Z,45.73
2019-03-20T00:48:51.851Z,45.63
2019-03-20T00:49:51.849Z,45.73
2019-03-20T00:50:51.835Z,45.53
2019-03-20T00:51:51.826Z,45.73
2019-03-20T00:52:51.805Z,45.63
2019-03-20T00:53:51.830Z,45.73
2019-03-20T00:54:51.778Z,45.45
2019-03-20T00:55:51.754Z,45.63
2019-03-20T00:56:51.666Z,45.65
2019-03-20T00:57:51.748Z,45.63
2019-03-20T00:58:51.637Z,45.65
2019-03-20T00:59:51.737Z,45.63
2019-03-20T01:00:51.722Z,45.75
2019-03-20T01:01:51.708Z,45.45
2019-03-20T01:02:51.736Z,45.53
2019-03-20T01:03:51.590Z,45.45
2019-03-20T01:04:51.661Z,45.55
2019-03-20T01:05:51.661Z,45.35
2019-03-20T01:06:51.655Z,45.65
2019-03-20T01:07:51.634Z,45.75
2019-03-20T01:08:51.569Z,45.75
2019-03-20T01:09:51.617Z,45.75
2019-03-20T01:10:51.512Z,45.63
2019-03-20T01:11:51.597Z,45.55
2019-03-20T01:12:51.574Z,46.26
2019-03-20T01:13:51.566Z,45.65
2019-03-20T01:14:51.511Z,45.53
2019-03-20T01:15:51.548Z,46.36
2019-03-20T01:16:51.544Z,46.14
2019-03-20T01:17:51.528Z,45.75
2019-03-20T01:18:51.427Z,45.83
2019-03-20T01:19:51.545Z,46.06
2019-03-20T01:20:51.492Z,45.73
2019-03-20T01:21:51.471Z,45.75
2019-03-20T01:22:51.455Z,46.06
2019-03-20T01:23:51.439Z,45.53
2019-03-20T01:24:51.422Z,45.55
2019-03-20T01:25:51.463Z,45.45
2019-03-20T01:26:51.453Z,46.36
2019-03-20T01:27:51.404Z,45.53
2019-03-20T01:28:51.394Z,45.55
2019-03-20T01:29:51.394Z,45.55
2019-03-20T01:30:51.371Z,45.63
2019-03-20T01:31:51.426Z,45.43
2019-03-20T01:32:51.351Z,45.65
2019-03-20T01:33:51.352Z,45.65
2019-03-20T01:34:51.325Z,45.65
2019-03-20T01:35:51.313Z,45.43
2019-03-20T01:36:51.322Z,46.06
2019-03-20T01:37:51.470Z,45.86
2019-03-20T01:38:51.319Z,45.55
2019-03-20T01:39:51.183Z,45.75
2019-03-20T01:40:51.278Z,45.55
2019-03-20T01:41:51.289Z,45.45
2019-03-20T01:42:51.283Z,45.55
2019-03-20T01:43:51.241Z,45.43
2019-03-20T01:44:51.229Z,46.36
2019-03-20T01:45:51.231Z,46.06
2019-03-20T01:46:51.109Z,45.55
2019-03-20T01:47:51.198Z,45.53
2019-03-20T01:48:51.226Z,45.45
2019-03-20T01:49:51.194Z,45.63
2019-03-20T01:50:51.165Z,46.15
2019-03-20T01:51:51.160Z,45.45
2019-03-20T01:52:51.149Z,45.55
2019-03-20T01:53:51.119Z,45.75
2019-03-20T01:54:51.165Z,45.45
2019-03-20T01:55:51.092Z,45.55
2019-03-20T01:56:51.090Z,45.55
2019-03-20T01:57:51.092Z,45.45
2019-03-20T01:58:51.083Z,45.63
2019-03-20T01:59:51.125Z,45.65
2019-03-20T02:00:51.094Z,45.45
2019-03-20T02:01:51.035Z,46.06
2019-03-20T02:02:51.030Z,45.55
2019-03-20T02:03:51.027Z,45.75
2019-03-20T02:04:51.006Z,45.75
2019-03-20T02:05:51.013Z,45.75
2019-03-20T02:06:51.022Z,45.75
2019-03-20T02:07:50.975Z,45.75
2019-03-20T02:08:50.978Z,45.75
2019-03-20T02:09:50.954Z,45.55
2019-03-20T02:10:50.935Z,45.55
2019-03-20T02:11:50.941Z,45.75
2019-03-20T02:12:50.960Z,45.65
2019-03-20T02:13:50.921Z,45.45
2019-03-20T02:14:50.892Z,45.75
2019-03-20T02:15:50.796Z,45.65
2019-03-20T02:16:50.895Z,45.45
2019-03-20T02:17:50.870Z,45.45
2019-03-20T02:18:50.896Z,45.45
2019-03-20T02:19:50.899Z,45.45
2019-03-20T02:20:50.827Z,45.55
2019-03-20T02:21:50.827Z,45.55
2019-03-20T02:22:50.718Z,45.55
2019-03-20T02:23:50.799Z,45.65
2019-03-20T02:24:50.789Z,45.86
2019-03-20T02:25:50.796Z,45.65
2019-03-20T02:26:50.791Z,45.75
2019-03-20T02:27:50.783Z,45.65
2019-03-20T02:28:50.747Z,45.45
2019-03-20T02:29:50.740Z,45.45
2019-03-20T02:30:50.759Z,45.55
2019-03-20T02:31:50.712Z,45.65
2019-03-20T02:32:50.720Z,45.75
2019-03-20T02:33:50.744Z,45.35
2019-03-20T02:34:50.691Z,45.35
2019-03-20T02:35:52.351Z,45.55
2019-03-20T02:36:50.701Z,45.55
2019-03-20T02:37:50.645Z,45.55
2019-03-20T02:38:50.623Z,45.45
2019-03-20T02:39:50.631Z,45.45
2019-03-20T02:40:50.608Z,45.35
2019-03-20T02:41:50.576Z,45.35
2019-03-20T02:42:50.616Z,45.35
2019-03-20T02:43:50.564Z,45.45
2019-03-20T02:44:50.640Z,45.45
2019-03-20T02:45:50.583Z,45.55
2019-03-20T02:46:50.594Z,45.35
2019-03-20T02:47:50.539Z,45.55
2019-03-20T02:48:50.514Z,45.55
2019-03-20T02:49:50.537Z,45.95
2019-03-20T02:50:50.545Z,46.36
2019-03-20T02:51:50.394Z,46.36
2019-03-20T02:52:50.465Z,46.26
2019-03-20T02:53:50.453Z,46.66
2019-03-20T02:54:50.484Z,46.15
2019-03-20T02:55:50.455Z,46.15
2019-03-20T02:56:50.385Z,46.56
2019-03-20T02:57:50.330Z,46.56
2019-03-20T02:58:50.325Z,46.46
2019-03-20T02:59:50.300Z,46.36
2019-03-20T03:00:50.327Z,46.36
2019-03-20T03:01:50.288Z,46.15
2019-03-20T03:02:50.406Z,46.15
2019-03-20T03:03:50.354Z,46.15
2019-03-20T03:04:50.339Z,46.15
2019-03-20T03:05:50.324Z,45.95
2019-03-20T03:06:50.394Z,45.95
2019-03-20T03:07:50.301Z,46.36
2019-03-20T03:08:50.244Z,46.66
2019-03-20T03:09:50.205Z,47.77
2019-03-20T03:10:50.250Z,47.36
2019-03-20T03:11:50.255Z,47.36
2019-03-20T03:12:50.183Z,46.56
2019-03-20T03:13:50.235Z,46.76
2019-03-20T03:14:50.184Z,46.56
2019-03-20T03:15:50.145Z,47.26
2019-03-20T03:16:50.239Z,47.77
2019-03-20T03:17:50.099Z,47.16
2019-03-20T03:18:50.100Z,47.56
2019-03-20T03:19:50.165Z,48.27
2019-03-20T03:20:50.115Z,47.34
2019-03-20T03:21:50.159Z,48.07
2019-03-20T03:22:50.061Z,48.17
2019-03-20T03:23:50.091Z,47.66
2019-03-20T03:24:50.117Z,47.66
2019-03-20T03:25:50.466Z,48.07
2019-03-20T03:26:50.127Z,47.77
2019-03-20T03:27:50.037Z,47.66
2019-03-20T03:28:49.991Z,47.77
2019-03-20T03:29:50.075Z,47.86
2019-03-20T03:30:49.970Z,48.37
2019-03-20T03:31:49.983Z,48.47
2019-03-20T03:32:49.957Z,48.27
2019-03-20T03:33:49.977Z,48.44
2019-03-20T03:34:49.945Z,47.97
2019-03-20T03:35:49.904Z,48.47
2019-03-20T03:36:49.903Z,48.37
2019-03-20T03:37:49.890Z,48.27
2019-03-20T03:38:49.882Z,47.86
2019-03-20T03:39:49.907Z,47.86
2019-03-20T03:40:49.889Z,48.95
2019-03-20T03:41:49.840Z,48.77
2019-03-20T03:42:49.822Z,48.77
2019-03-20T03:43:49.824Z,48.77
2019-03-20T03:44:49.800Z,48.87
2019-03-20T03:45:49.836Z,48.67
2019-03-20T03:46:49.795Z,48.75
2019-03-20T03:47:49.839Z,48.77
2019-03-20T03:48:49.766Z,49.18
2019-03-20T03:49:49.762Z,48.87
2019-03-20T03:50:49.745Z,49.07
2019-03-20T03:51:49.770Z,49.15
2019-03-20T03:52:49.728Z,48.97
2019-03-20T03:53:49.703Z,49.18
2019-03-20T03:54:49.704Z,48.97
2019-03-20T03:55:49.692Z,48.87
2019-03-20T03:56:49.702Z,48.87
2019-03-20T03:57:49.711Z,48.97
2019-03-20T03:58:49.673Z,49.37
2019-03-20T03:59:49.644Z,48.97
2019-03-20T04:00:49.653Z,49.48
2019-03-20T04:01:49.639Z,49.45
2019-03-20T04:02:49.603Z,49.48
2019-03-20T04:03:49.651Z,49.48
2019-03-20T04:04:49.586Z,49.37
2019-03-20T04:05:49.596Z,49.37
2019-03-20T04:06:49.563Z,49.45
2019-03-20T04:07:49.565Z,49.37
2019-03-20T04:08:49.598Z,49.37
2019-03-20T04:09:49.573Z,49.18
2019-03-20T04:10:49.509Z,49.18
2019-03-20T04:11:49.502Z,49.07
2019-03-20T04:12:49.503Z,49.57
2019-03-20T04:13:49.484Z,49.25
2019-03-20T04:14:49.480Z,49.18
2019-03-20T04:15:49.510Z,49.27
2019-03-20T04:16:49.461Z,49.15
2019-03-20T04:17:49.444Z,49.35
2019-03-20T04:18:49.442Z,49.27
2019-03-20T04:19:49.427Z,49.65
2019-03-20T04:20:49.422Z,49.07
2019-03-20T04:21:49.461Z,49.15
2019-03-20T04:22:49.444Z,49.48
2019-03-20T04:23:49.386Z,49.48
2019-03-20T04:24:49.363Z,49.65
2019-03-20T04:25:49.367Z,49.25
2019-03-20T04:26:49.349Z,49.07
2019-03-20T04:27:49.366Z,49.45
2019-03-20T04:28:49.331Z,49.55
2019-03-20T04:29:49.329Z,49.45
2019-03-20T04:30:49.321Z,49.55
2019-03-20T04:31:49.314Z,49.45
2019-03-20T04:32:49.284Z,49.48
2019-03-20T04:33:49.325Z,49.37
2019-03-20T04:34:49.261Z,49.48
2019-03-20T04:35:49.342Z,49.57
2019-03-20T04:36:49.322Z,49.48
2019-03-20T04:37:49.320Z,49.37
2019-03-20T04:38:49.325Z,49.55
2019-03-20T04:39:49.262Z,49.37
2019-03-20T04:40:49.299Z,49.37
2019-03-20T04:41:49.292Z,49.37
2019-03-20T04:42:49.302Z,49.18
2019-03-20T04:43:49.255Z,49.48
2019-03-20T04:44:49.160Z,49.45
2019-03-20T04:45:49.279Z,49.07
2019-03-20T04:46:49.117Z,49.68
2019-03-20T04:47:49.227Z,49.57
2019-03-20T04:48:49.189Z,49.48
2019-03-20T04:49:49.197Z,49.37
2019-03-20T04:50:49.163Z,49.35
2019-03-20T04:51:49.182Z,49.37
2019-03-20T04:52:49.180Z,49.35
2019-03-20T04:53:49.140Z,49.27
2019-03-20T04:54:49.122Z,49.18
2019-03-20T04:55:49.111Z,49.37
2019-03-20T04:56:49.141Z,49.35
2019-03-20T04:57:49.107Z,49.37
2019-03-20T04:58:49.139Z,49.37
2019-03-20T04:59:49.099Z,49.27
2019-03-20T05:00:49.131Z,49.18
2019-03-20T05:01:49.063Z,49.27
2019-03-20T05:02:49.061Z,49.57
2019-03-20T05:03:49.046Z,49.15
2019-03-20T05:04:49.036Z,49.27
2019-03-20T05:05:49.035Z,49.18
2019-03-20T05:06:58.248Z,49.27
2019-03-20T05:07:50.060Z,49.18
2019-03-20T05:08:48.987Z,49.37
2019-03-20T05:09:49.023Z,49.37
2019-03-20T05:10:48.975Z,49.27
2019-03-20T05:11:49.077Z,49.18
2019-03-20T05:12:48.944Z,49.27
2019-03-20T05:13:48.929Z,49.48
2019-03-20T05:14:48.923Z,49.27
2019-03-20T05:15:48.838Z,49.18
2019-03-20T05:16:48.904Z,49.18
2019-03-20T05:17:48.878Z,49.27
2019-03-20T05:18:48.851Z,49.48
2019-03-20T05:19:48.777Z,49.27
2019-03-20T05:20:48.742Z,49.18
2019-03-20T05:21:48.877Z,49.35
2019-03-20T05:22:48.745Z,49.18
2019-03-20T05:23:48.803Z,49.48
2019-03-20T05:24:48.814Z,49.37
2019-03-20T05:25:48.799Z,49.18
2019-03-20T05:26:48.810Z,49.48
2019-03-20T05:27:48.816Z,49.48
2019-03-20T05:28:48.768Z,49.48
2019-03-20T05:29:48.737Z,49.48
2019-03-20T05:30:48.758Z,49.48
2019-03-20T05:31:48.730Z,49.18
2019-03-20T05:32:48.717Z,49.48
2019-03-20T05:33:48.733Z,49.27
2019-03-20T05:34:48.700Z,49.48
2019-03-20T05:35:48.699Z,49.35
2019-03-20T05:36:48.675Z,49.37
2019-03-20T05:37:48.636Z,49.48
2019-03-20T05:38:48.645Z,49.48
2019-03-20T05:39:48.662Z,49.25
2019-03-20T05:40:48.630Z,49.48
2019-03-20T05:41:48.626Z,49.48
2019-03-20T05:42:48.612Z,49.48
2019-03-20T05:43:48.603Z,49.55
2019-03-20T05:44:48.595Z,49.48
2019-03-20T05:45:48.665Z,48.97
2019-03-20T05:46:48.555Z,49.37
2019-03-20T05:47:48.540Z,49.48
2019-03-20T05:48:48.545Z,48.87
2019-03-20T05:49:48.547Z,49.15
2019-03-20T05:50:48.537Z,48.85
2019-03-20T05:51:48.456Z,48.97
2019-03-20T05:52:48.508Z,48.95
2019-03-20T05:53:48.499Z,49.05
2019-03-20T05:54:48.475Z,49.15
2019-03-20T05:55:48.468Z,48.87
2019-03-20T05:56:48.447Z,48.95
2019-03-20T05:57:48.512Z,49.18
2019-03-20T05:58:48.327Z,49.18
2019-03-20T05:59:48.431Z,49.05
2019-03-20T06:00:48.481Z,49.07
2019-03-20T06:01:48.397Z,49.18
2019-03-20T06:02:48.391Z,49.07
2019-03-20T06:03:48.423Z,48.97
2019-03-20T06:04:48.369Z,48.87
2019-03-20T06:05:48.357Z,48.87
2019-03-20T06:06:48.353Z,49.15
2019-03-20T06:07:48.312Z,49.05
2019-03-20T06:08:48.305Z,48.67
2019-03-20T06:09:48.348Z,49.07
2019-03-20T06:10:48.300Z,49.07
2019-03-20T06:11:48.271Z,49.05
2019-03-20T06:12:48.214Z,48.44
2019-03-20T06:13:48.256Z,48.44
2019-03-20T06:14:48.267Z,48.44
2019-03-20T06:15:48.355Z,48.77
2019-03-20T06:16:48.235Z,49.07
2019-03-20T06:17:48.215Z,48.67
2019-03-20T06:18:48.216Z,48.57
2019-03-20T06:19:48.202Z,49.15
2019-03-20T06:20:48.196Z,48.75
2019-03-20T06:21:48.231Z,48.65
2019-03-20T06:22:48.154Z,48.55
2019-03-20T06:23:48.177Z,48.75
2019-03-20T06:24:48.146Z,48.75
2019-03-20T06:25:48.141Z,48.65
2019-03-20T06:26:48.130Z,48.65
2019-03-20T06:27:48.039Z,48.55
2019-03-20T06:28:48.125Z,48.65
2019-03-20T06:29:48.072Z,48.65
2019-03-20T06:30:48.070Z,48.55
2019-03-20T06:31:48.054Z,48.75
2019-03-20T06:32:48.110Z,48.85
2019-03-20T06:33:48.056Z,48.85
2019-03-20T06:34:48.958Z,48.85
2019-03-20T06:35:48.008Z,48.85
2019-03-20T06:36:47.987Z,48.85
2019-03-20T06:37:48.005Z,48.85
2019-03-20T06:38:48.034Z,48.85
2019-03-20T06:39:47.982Z,48.75
2019-03-20T06:40:47.980Z,48.85
2019-03-20T06:41:47.950Z,48.85
2019-03-20T06:42:47.951Z,48.85
2019-03-20T06:43:47.942Z,48.85
2019-03-20T06:44:47.947Z,48.85
2019-03-20T06:45:47.917Z,48.85
2019-03-20T06:46:47.928Z,48.85
2019-03-20T06:47:47.882Z,48.85
2019-03-20T06:48:47.878Z,48.85
2019-03-20T06:49:47.855Z,48.85
2019-03-20T06:50:47.892Z,48.85
2019-03-20T06:51:47.850Z,48.85
2019-03-20T06:52:47.849Z,48.85
2019-03-20T06:53:47.857Z,48.65
2019-03-20T06:54:47.845Z,48.85
2019-03-20T06:55:47.814Z,48.65
2019-03-20T06:56:47.883Z,48.75
2019-03-20T06:57:47.720Z,48.95
2019-03-20T06:58:47.748Z,48.85
2019-03-20T06:59:47.811Z,48.85
2019-03-20T07:00:47.759Z,48.85
2019-03-20T07:01:47.696Z,47.85
2019-03-20T07:02:47.863Z,47.85
2019-03-20T07:03:47.766Z,48.25
2019-03-20T07:04:47.687Z,47.74
2019-03-20T07:05:47.594Z,48.25
2019-03-20T07:06:47.580Z,47.92
2019-03-20T07:07:47.626Z,48.32
2019-03-20T07:08:47.812Z,48.22
2019-03-20T07:09:48.492Z,48.22
2019-03-20T07:10:47.549Z,48.12
2019-03-20T07:11:47.634Z,48.43
2019-03-20T07:12:47.511Z,48.32
2019-03-20T07:13:47.612Z,47.92
2019-03-20T07:14:47.493Z,47.92
2019-03-20T07:15:47.627Z,48.22
2019-03-20T07:16:47.475Z,48.32
2019-03-20T07:17:47.457Z,48.22
2019-03-20T07:18:47.442Z,47.92
2019-03-20T07:19:47.529Z,47.82
2019-03-20T07:20:47.529Z,48.22
2019-03-20T07:21:48.043Z,47.92
2019-03-20T07:22:47.512Z,47.52
2019-03-20T07:23:47.489Z,47.82
2019-03-20T07:24:47.486Z,47.42
2019-03-20T07:25:47.471Z,47.52
2019-03-20T07:26:47.455Z,47.22
2019-03-20T07:27:47.502Z,47.92
2019-03-20T07:28:47.346Z,47.62
2019-03-20T07:29:47.446Z,48.02
2019-03-20T07:30:47.428Z,47.42
2019-03-20T07:31:47.315Z,47.82
2019-03-20T07:32:47.372Z,48.02
2019-03-20T07:33:47.330Z,48.12
2019-03-20T07:34:47.297Z,48.10
2019-03-20T07:35:47.258Z,47.70
2019-03-20T07:36:47.255Z,47.22
2019-03-20T07:37:55.519Z,48.10
2019-03-20T07:38:48.271Z,47.52
2019-03-20T07:39:47.221Z,47.60
2019-03-20T07:40:47.205Z,47.90
2019-03-20T07:41:47.197Z,47.22
2019-03-20T07:42:47.193Z,47.32
2019-03-20T07:43:47.183Z,47.09
2019-03-20T07:44:47.211Z,47.30
2019-03-20T07:45:47.154Z,47.90
2019-03-20T07:46:47.154Z,47.80
2019-03-20T07:47:47.139Z,48.22
2019-03-20T07:48:47.123Z,47.09
2019-03-20T07:49:47.111Z,47.30
2019-03-20T07:50:47.248Z,47.50
2019-03-20T07:51:47.085Z,47.70
2019-03-20T07:52:47.203Z,47.60
2019-03-20T07:53:47.066Z,47.50
2019-03-20T07:54:47.052Z,47.90
2019-03-20T07:55:47.177Z,47.70
2019-03-20T07:56:47.137Z,47.67
2019-03-20T07:57:47.133Z,47.80
2019-03-20T07:58:47.096Z,48.00
2019-03-20T07:59:47.090Z,47.60
2019-03-20T08:00:47.095Z,47.80
2019-03-20T08:01:47.032Z,47.09
2019-03-20T08:02:47.062Z,47.27
2019-03-20T08:03:47.043Z,47.17
2019-03-20T08:04:47.021Z,47.88
2019-03-20T08:05:47.032Z,47.58
2019-03-20T08:06:46.920Z,47.97
2019-03-20T08:07:47.078Z,47.47
2019-03-20T08:08:47.005Z,47.97
2019-03-20T08:09:46.880Z,48.08
2019-03-20T08:10:46.875Z,47.27
2019-03-20T08:11:46.874Z,47.17
2019-03-20T08:12:46.866Z,47.27
2019-03-20T08:13:46.889Z,47.15
2019-03-20T08:14:46.844Z,47.15
2019-03-20T08:15:46.829Z,47.38
2019-03-20T08:16:46.820Z,48.05
2019-03-20T08:17:46.814Z,47.55
2019-03-20T08:18:46.781Z,47.35
2019-03-20T08:19:46.837Z,47.15
2019-03-20T08:20:46.861Z,48.05
2019-03-20T08:21:46.754Z,48.05
2019-03-20T08:22:46.730Z,47.96
2019-03-20T08:23:46.724Z,47.23
2019-03-20T08:24:46.723Z,47.53
2019-03-20T08:25:46.739Z,47.73
2019-03-20T08:26:46.783Z,47.33
2019-03-20T08:27:46.693Z,47.43
2019-03-20T08:28:46.785Z,47.23
2019-03-20T08:29:46.672Z,47.73
2019-03-20T08:30:46.646Z,47.23
2019-03-20T08:31:46.693Z,47.53
2019-03-20T08:32:46.625Z,47.85
2019-03-20T08:33:46.619Z,47.75
2019-03-20T08:34:46.609Z,47.53
2019-03-20T08:35:46.592Z,47.73
2019-03-20T08:36:46.593Z,47.53
2019-03-20T08:37:46.611Z,47.73
2019-03-20T08:38:46.573Z,47.33
2019-03-20T08:39:46.563Z,47.43
2019-03-20T08:40:46.543Z,47.23
2019-03-20T08:41:46.556Z,47.43
2019-03-20T08:43:14.411Z,47.33
2019-03-20T08:43:46.652Z,47.35
2019-03-20T08:44:46.504Z,47.55
2019-03-20T08:45:46.597Z,47.13
2019-03-20T08:46:46.498Z,47.33
2019-03-20T08:47:46.589Z,47.53
2019-03-20T08:48:48.426Z,47.35
2019-03-20T08:49:46.564Z,47.75
2019-03-20T08:50:46.466Z,47.35
2019-03-20T08:51:46.426Z,47.45
2019-03-20T08:52:46.406Z,47.55
2019-03-20T08:53:46.386Z,47.53
2019-03-20T08:54:46.420Z,48.73
2019-03-20T08:55:46.385Z,48.93
2019-03-20T08:56:46.374Z,49.33
2019-03-20T08:57:46.366Z,49.23
2019-03-20T08:58:46.396Z,49.23
2019-03-20T08:59:46.331Z,49.33
2019-03-20T09:00:46.338Z,49.05
2019-03-20T09:01:46.306Z,48.83
2019-03-20T09:02:46.322Z,49.93
2019-03-20T09:03:46.292Z,49.74
2019-03-20T09:04:46.306Z,50.04
2019-03-20T09:05:46.265Z,50.04
2019-03-20T09:06:46.295Z,49.93
2019-03-20T09:07:47.561Z,50.24
2019-03-20T09:08:46.246Z,50.44
2019-03-20T09:09:46.227Z,50.24
2019-03-20T09:10:46.209Z,50.44
2019-03-20T09:11:46.198Z,50.13
2019-03-20T09:12:46.240Z,50.34
2019-03-20T09:13:46.179Z,50.44
2019-03-20T09:14:46.164Z,50.74
2019-03-20T09:15:46.151Z,50.63
2019-03-20T09:16:46.141Z,50.84
2019-03-20T09:17:46.130Z,50.63
2019-03-20T09:18:46.131Z,50.74
2019-03-20T09:19:46.106Z,50.94
2019-03-20T09:20:46.157Z,50.94
2019-03-20T09:21:46.088Z,50.24
2019-03-20T09:22:46.089Z,50.24
2019-03-20T09:23:46.110Z,50.24
2019-03-20T09:24:46.052Z,50.94
2019-03-20T09:25:46.043Z,50.74
2019-03-20T09:26:46.031Z,50.94
2019-03-20T09:27:46.043Z,50.74
2019-03-20T09:28:46.043Z,50.84
2019-03-20T09:29:46.046Z,50.74
2019-03-20T09:30:45.995Z,50.84
2019-03-20T09:31:45.972Z,50.74
2019-03-20T09:32:45.966Z,50.44
2019-03-20T09:33:46.000Z,50.44
2019-03-20T09:34:45.953Z,50.54
2019-03-20T09:35:45.991Z,50.31
2019-03-20T09:36:45.928Z,50.54
2019-03-20T09:37:51.689Z,50.54
2019-03-20T09:38:46.897Z,50.44
2019-03-20T09:39:45.885Z,50.04
2019-03-20T09:40:45.878Z,49.04
2019-03-20T09:41:45.888Z,48.93
2019-03-20T09:42:45.858Z,48.93
2019-03-20T09:43:45.882Z,49.43
2019-03-20T09:44:45.831Z,49.13
2019-03-20T09:45:45.823Z,49.54
2019-03-20T09:46:45.813Z,49.84
2019-03-20T09:47:45.801Z,50.34
2019-03-20T09:48:45.787Z,50.44
2019-03-20T09:49:45.824Z,50.63
2019-03-20T09:50:45.766Z,50.63
2019-03-20T09:51:45.757Z,50.74
2019-03-20T09:52:45.741Z,50.34
2019-03-20T09:53:45.731Z,50.13
2019-03-20T09:54:45.753Z,49.93
2019-03-20T09:55:45.746Z,49.74
2019-03-20T09:56:45.701Z,49.93
2019-03-20T09:57:45.683Z,49.04
2019-03-20T09:58:45.681Z,48.73
2019-03-20T09:59:46.073Z,48.83
2019-03-20T10:00:45.656Z,49.04
2019-03-20T10:01:45.688Z,49.33
2019-03-20T10:02:45.631Z,49.23
2019-03-20T10:03:45.626Z,49.33
2019-03-20T10:04:45.611Z,49.33
2019-03-20T10:05:45.601Z,49.33
2019-03-20T10:06:45.581Z,49.13
2019-03-20T10:07:45.626Z,49.23
2019-03-20T10:08:53.789Z,49.13
2019-03-20T10:09:46.559Z,49.13
2019-03-20T10:10:45.555Z,49.33
2019-03-20T10:11:45.551Z,49.13
2019-03-20T10:12:45.657Z,49.23
2019-03-20T10:13:45.562Z,49.93
2019-03-20T10:14:45.526Z,50.54
2019-03-20T10:15:45.496Z,50.63
2019-03-20T10:16:45.473Z,50.63
2019-03-20T10:17:46.444Z,50.74
2019-03-20T10:18:45.512Z,50.71
2019-03-20T10:19:45.466Z,50.74
2019-03-20T10:20:45.449Z,50.81
2019-03-20T10:21:45.433Z,50.62
2019-03-20T10:22:45.432Z,51.74
2019-03-20T10:23:45.422Z,51.24
2019-03-20T10:24:45.479Z,51.74
2019-03-20T10:25:45.418Z,51.74
2019-03-20T10:26:45.400Z,51.72
2019-03-20T10:27:45.345Z,51.72
2019-03-20T10:28:45.358Z,51.72
2019-03-20T10:29:45.334Z,51.12
2019-03-20T10:30:45.359Z,50.92
2019-03-20T10:31:45.373Z,50.71
2019-03-20T10:32:45.316Z,50.81
2019-03-20T10:33:45.313Z,50.81
2019-03-20T10:34:45.291Z,50.81
2019-03-20T10:35:50.349Z,50.71
2019-03-20T10:36:46.414Z,50.92
2019-03-20T10:37:45.261Z,50.62
2019-03-20T10:38:45.250Z,50.59
2019-03-20T10:39:45.237Z,50.62
2019-03-20T10:40:45.243Z,50.59
2019-03-20T10:41:45.217Z,50.39
2019-03-20T10:42:45.247Z,50.39
2019-03-20T10:43:45.221Z,50.09
2019-03-20T10:44:45.187Z,49.57
2019-03-20T10:45:45.184Z,49.76
2019-03-20T10:46:45.164Z,49.57
2019-03-20T10:47:45.153Z,48.66
2019-03-20T10:48:45.160Z,48.86
2019-03-20T10:49:45.135Z,49.07
2019-03-20T10:50:45.115Z,48.96
2019-03-20T10:51:45.124Z,48.76
2019-03-20T10:52:45.094Z,48.46
2019-03-20T10:53:45.118Z,48.66
2019-03-20T10:54:45.064Z,47.86
2019-03-20T10:55:45.060Z,47.76
2019-03-20T10:56:45.052Z,48.16
2019-03-20T10:57:45.043Z,47.96
2019-03-20T10:58:45.105Z,48.16
2019-03-20T10:59:45.164Z,47.46
2019-03-20T11:00:45.112Z,47.26
2019-03-20T11:01:45.100Z,47.56
2019-03-20T11:02:44.990Z,47.06
2019-03-20T11:03:45.095Z,47.76
2019-03-20T11:04:44.969Z,47.56
2019-03-20T11:05:45.004Z,47.66
2019-03-20T11:06:44.938Z,48.07
2019-03-20T11:07:44.924Z,47.86
2019-03-20T11:08:44.934Z,48.07
2019-03-20T11:09:44.922Z,48.46
2019-03-20T11:10:44.904Z,48.36
2019-03-20T11:11:44.919Z,48.86
2019-03-20T11:12:44.877Z,48.76
2019-03-20T11:13:44.880Z,48.96
2019-03-20T11:14:44.866Z,48.57
2019-03-20T11:15:44.853Z,48.86
2019-03-20T11:16:45.001Z,48.86
2019-03-20T11:17:44.914Z,48.26
2019-03-20T11:18:44.817Z,48.86
2019-03-20T11:19:44.831Z,48.26
2019-03-20T11:20:44.789Z,48.86
2019-03-20T11:21:44.766Z,48.86
2019-03-20T11:22:44.787Z,48.86
2019-03-20T11:23:44.782Z,48.57
2019-03-20T11:24:44.749Z,48.44
2019-03-20T11:25:44.735Z,48.54
2019-03-20T11:26:44.709Z,48.34
2019-03-20T11:27:44.710Z,47.56
2019-03-20T11:28:44.694Z,47.44
2019-03-20T11:29:44.707Z,48.66
2019-03-20T11:30:44.668Z,48.64
2019-03-20T11:31:44.691Z,47.54
2019-03-20T11:32:44.658Z,47.44
2019-03-20T11:33:44.645Z,48.34
2019-03-20T11:34:44.629Z,48.64
2019-03-20T11:35:44.665Z,48.34
2019-03-20T11:36:44.609Z,48.64
2019-03-20T11:37:44.630Z,47.74
2019-03-20T11:38:44.575Z,47.84
2019-03-20T11:39:44.570Z,47.84
2019-03-20T11:40:44.570Z,48.14
2019-03-20T11:41:44.556Z,47.94
2019-03-20T11:42:44.528Z,48.04
2019-03-20T11:43:44.561Z,47.94
2019-03-20T11:44:44.512Z,48.14
2019-03-20T11:45:44.495Z,47.64
2019-03-20T11:46:44.486Z,47.42
2019-03-20T11:47:44.475Z,47.61
2019-03-20T11:48:44.468Z,47.61
2019-03-20T11:49:44.493Z,47.72
2019-03-20T11:50:44.446Z,47.42
2019-03-20T11:51:44.435Z,47.92
2019-03-20T11:52:44.426Z,47.52
2019-03-20T11:53:44.408Z,47.42
2019-03-20T11:54:44.397Z,47.61
2019-03-20T11:55:44.415Z,47.92
2019-03-20T11:56:44.377Z,47.81
2019-03-20T11:57:44.362Z,47.02
2019-03-20T11:58:44.353Z,47.92
2019-03-20T11:59:44.345Z,47.02
2019-03-20T12:00:44.335Z,46.51
2019-03-20T12:01:44.360Z,47.31
2019-03-20T12:02:44.311Z,47.02
2019-03-20T12:03:44.298Z,46.72
2019-03-20T12:04:44.286Z,37.51
2019-03-20T12:05:44.285Z,27.81
2019-03-20T12:06:44.313Z,26.32
2019-03-20T12:07:44.257Z,26.12
2019-03-20T12:08:44.241Z,27.22
2019-03-20T12:09:44.240Z,25.03
2019-03-20T12:10:44.239Z,24.44
2019-03-20T12:11:46.039Z,25.35
2019-03-20T12:12:44.239Z,24.87
2019-03-20T12:13:44.193Z,25.16
2019-03-20T12:14:44.168Z,27.37
2019-03-20T12:15:44.255Z,25.88
2019-03-20T12:16:44.156Z,26.48
2019-03-20T12:17:44.236Z,27.19
2019-03-20T12:18:44.170Z,27.48
2019-03-20T12:19:45.120Z,25.78
2019-03-20T12:20:44.112Z,25.58
2019-03-20T12:21:44.139Z,25.98
2019-03-20T12:22:44.215Z,28.59
2019-03-20T12:23:44.186Z,32.30
2019-03-20T12:24:44.075Z,32.70
2019-03-20T12:25:44.048Z,34.29
2019-03-20T12:26:44.169Z,34.69
2019-03-20T12:27:44.179Z,34.80
2019-03-20T12:28:44.127Z,34.89
2019-03-20T12:29:44.127Z,34.99
2019-03-20T12:30:44.079Z,35.10
2019-03-20T12:31:44.004Z,34.69
2019-03-20T12:32:43.991Z,34.99
2019-03-20T12:33:43.982Z,34.28
2019-03-20T12:34:44.037Z,34.58
2019-03-20T12:35:43.939Z,35.68
2019-03-20T12:36:43.943Z,35.38
2019-03-20T12:37:43.919Z,35.88
2019-03-20T12:38:44.008Z,35.28
2019-03-20T12:39:52.821Z,36.07
2019-03-20T12:40:45.015Z,36.26
2019-03-20T12:41:44.015Z,35.96
2019-03-20T12:42:43.963Z,36.57
2019-03-20T12:43:45.459Z,36.96
2019-03-20T12:44:43.987Z,36.66
2019-03-20T12:45:43.932Z,37.66
2019-03-20T12:46:43.912Z,37.16
2019-03-20T12:47:43.916Z,36.96
2019-03-20T12:48:43.899Z,37.27
2019-03-20T12:49:43.915Z,37.15
2019-03-20T12:50:43.855Z,37.75
2019-03-20T12:51:43.855Z,37.87
2019-03-20T12:52:43.834Z,38.25